createdAt,value
2022-12-29T05:00:29.600Z,77.96
2022-12-29T05:01:29.775Z,78.06
2022-12-29T05:02:29.846Z,77.75
2022-12-29T05:03:29.609Z,77.55
2022-12-29T05:04:29.489Z,77.69
2022-12-29T05:05:29.475Z,77.48
2022-12-29T05:06:29.478Z,77.55
2022-12-29T05:07:29.508Z,77.55
2022-12-29T05:08:29.439Z,77.45
2022-12-29T05:09:30.439Z,77.34
2022-12-29T05:10:29.419Z,77.59
2022-12-29T05:11:34.442Z,77.34
2022-12-29T05:12:29.394Z,77.45
2022-12-29T05:13:29.388Z,77.55
2022-12-29T05:14:29.379Z,77.25
2022-12-29T05:15:29.376Z,77.34
2022-12-29T05:16:29.490Z,77.59
2022-12-29T05:17:29.340Z,77.55
2022-12-29T05:18:29.336Z,77.38
2022-12-29T05:19:29.315Z,77.69
2022-12-29T05:20:29.302Z,77.59
2022-12-29T05:21:29.352Z,77.79
2022-12-29T05:22:35.298Z,77.69
2022-12-29T05:23:29.292Z,77.75
2022-12-29T05:24:29.258Z,77.59
2022-12-29T05:25:29.248Z,77.79
2022-12-29T05:26:29.312Z,77.79
2022-12-29T05:27:29.226Z,77.89
2022-12-29T05:28:29.217Z,77.18
2022-12-29T05:29:29.213Z,77.59
2022-12-29T05:30:29.197Z,77.18
2022-12-29T05:31:29.274Z,77.69
2022-12-29T05:32:29.199Z,78.20
2022-12-29T05:33:34.180Z,77.89
2022-12-29T05:34:29.174Z,77.38
2022-12-29T05:35:29.152Z,78.00
2022-12-29T05:36:34.455Z,77.69
2022-12-29T05:37:30.135Z,77.38
2022-12-29T05:38:29.108Z,77.79
2022-12-29T05:39:29.095Z,77.59
2022-12-29T05:40:29.082Z,77.69
2022-12-29T05:41:29.089Z,77.89
2022-12-29T05:42:29.067Z,77.93
2022-12-29T05:43:29.068Z,77.69
2022-12-29T05:44:34.061Z,77.79
2022-12-29T05:45:29.032Z,78.00
2022-12-29T05:46:29.067Z,78.09
2022-12-29T05:47:29.028Z,78.30
2022-12-29T05:48:34.411Z,78.91
2022-12-29T05:49:29.991Z,78.44
2022-12-29T05:50:28.963Z,78.64
2022-12-29T05:51:28.973Z,78.64
2022-12-29T05:52:28.962Z,78.61
2022-12-29T05:53:28.948Z,78.71
2022-12-29T05:54:28.929Z,78.61
2022-12-29T05:55:33.931Z,79.16
2022-12-29T05:56:28.895Z,79.05
2022-12-29T05:57:29.356Z,79.57
2022-12-29T05:58:28.872Z,79.63
2022-12-29T05:59:28.912Z,79.57
2022-12-29T06:00:28.861Z,79.32
2022-12-29T06:01:28.918Z,79.43
2022-12-29T06:02:29.039Z,79.52
2022-12-29T06:03:28.931Z,78.91
2022-12-29T06:04:28.838Z,79.05
2022-12-29T06:05:28.799Z,79.43
2022-12-29T06:06:33.812Z,79.43
2022-12-29T06:07:28.789Z,79.02
2022-12-29T06:08:28.763Z,79.32
2022-12-29T06:09:28.754Z,79.22
2022-12-29T06:10:28.760Z,79.22
2022-12-29T06:11:28.734Z,79.73
2022-12-29T06:12:28.747Z,79.43
2022-12-29T06:13:28.711Z,79.52
2022-12-29T06:14:28.694Z,79.22
2022-12-29T06:15:28.683Z,79.02
2022-12-29T06:16:28.765Z,79.22
2022-12-29T06:17:33.711Z,79.02
2022-12-29T06:18:28.653Z,79.02
2022-12-29T06:19:28.637Z,79.52
2022-12-29T06:20:28.641Z,79.22
2022-12-29T06:21:28.622Z,79.22
2022-12-29T06:22:28.614Z,79.83
2022-12-29T06:23:28.594Z,79.12
2022-12-29T06:24:28.581Z,79.73
2022-12-29T06:25:28.568Z,78.81
2022-12-29T06:26:28.554Z,78.71
2022-12-29T06:27:28.560Z,78.81
2022-12-29T06:28:33.553Z,78.61
2022-12-29T06:29:28.545Z,78.61
2022-12-29T06:30:28.517Z,78.30
2022-12-29T06:31:28.541Z,78.61
2022-12-29T06:32:28.507Z,78.61
2022-12-29T06:33:28.474Z,78.20
2022-12-29T06:34:28.487Z,78.00
2022-12-29T06:35:28.454Z,77.69
2022-12-29T06:36:28.490Z,77.79
2022-12-29T06:37:28.454Z,77.59
2022-12-29T06:38:28.469Z,77.79
2022-12-29T06:39:33.442Z,77.04
2022-12-29T06:40:28.396Z,77.34
2022-12-29T06:41:32.146Z,77.38
2022-12-29T06:42:28.396Z,77.38
2022-12-29T06:43:29.359Z,77.59
2022-12-29T06:44:28.378Z,77.08
2022-12-29T06:45:28.374Z,76.87
2022-12-29T06:46:28.415Z,77.38
2022-12-29T06:47:28.333Z,76.97
2022-12-29T06:48:28.329Z,76.73
2022-12-29T06:49:29.299Z,76.77
2022-12-29T06:50:33.307Z,76.87
2022-12-29T06:51:28.299Z,77.04
2022-12-29T06:52:28.294Z,76.84
2022-12-29T06:53:28.255Z,75.82
2022-12-29T06:54:28.238Z,76.22
2022-12-29T06:55:28.225Z,75.71
2022-12-29T06:56:28.221Z,75.92
2022-12-29T06:57:28.253Z,75.54
2022-12-29T06:58:28.211Z,75.82
2022-12-29T06:59:28.198Z,75.65
2022-12-29T07:00:28.193Z,75.54
2022-12-29T07:01:33.351Z,75.41
2022-12-29T07:02:28.295Z,74.49
2022-12-29T07:03:28.230Z,74.86
2022-12-29T07:04:28.143Z,74.18
2022-12-29T07:05:28.111Z,74.45
2022-12-29T07:06:28.112Z,73.84
2022-12-29T07:07:28.118Z,73.77
2022-12-29T07:08:28.112Z,73.74
2022-12-29T07:09:28.068Z,74.15
2022-12-29T07:10:28.058Z,73.94
2022-12-29T07:11:28.044Z,74.25
2022-12-29T07:12:33.074Z,73.54
2022-12-29T07:13:28.021Z,74.15
2022-12-29T07:14:28.014Z,74.05
2022-12-29T07:15:28.058Z,73.33
2022-12-29T07:16:28.169Z,72.82
2022-12-29T07:17:28.082Z,73.13
2022-12-29T07:18:28.966Z,72.82
2022-12-29T07:19:28.010Z,73.36
2022-12-29T07:20:27.956Z,72.82
2022-12-29T07:21:28.011Z,73.43
2022-12-29T07:22:27.941Z,72.82
2022-12-29T07:23:32.961Z,72.41
2022-12-29T07:24:27.913Z,72.72
2022-12-29T07:25:27.887Z,72.62
2022-12-29T07:26:32.915Z,72.82
2022-12-29T07:27:28.919Z,72.41
2022-12-29T07:28:27.856Z,72.48
2022-12-29T07:29:27.849Z,73.50
2022-12-29T07:30:27.925Z,72.65
2022-12-29T07:31:27.885Z,72.08
2022-12-29T07:32:27.815Z,70.72
2022-12-29T07:33:27.902Z,72.08
2022-12-29T07:34:32.823Z,71.77
2022-12-29T07:35:27.785Z,72.08
2022-12-29T07:36:34.007Z,72.08
2022-12-29T07:37:28.763Z,71.97
2022-12-29T07:38:27.788Z,71.97
2022-12-29T07:39:27.762Z,71.97
2022-12-29T07:40:27.995Z,72.08
2022-12-29T07:41:27.708Z,72.08
2022-12-29T07:42:27.710Z,72.28
2022-12-29T07:43:27.711Z,72.28
2022-12-29T07:44:27.716Z,72.31
2022-12-29T07:45:32.901Z,72.11
2022-12-29T07:46:55.248Z,71.77
2022-12-29T07:47:28.649Z,72.17
2022-12-29T07:48:27.647Z,72.17
2022-12-29T07:49:27.634Z,72.31
2022-12-29T07:50:27.624Z,72.11
2022-12-29T07:51:27.793Z,72.11
2022-12-29T07:52:27.590Z,72.38
2022-12-29T07:53:27.586Z,72.17
2022-12-29T07:54:28.592Z,72.08
2022-12-29T07:55:27.592Z,72.17
2022-12-29T07:56:32.557Z,72.11
2022-12-29T07:57:31.722Z,72.31
2022-12-29T07:58:27.580Z,72.31
2022-12-29T07:59:27.499Z,71.87
2022-12-29T08:00:27.494Z,72.38
2022-12-29T08:01:27.620Z,72.17
2022-12-29T08:02:27.864Z,71.97
2022-12-29T08:03:27.662Z,72.17
2022-12-29T08:04:27.537Z,72.38
2022-12-29T08:05:27.479Z,72.28
2022-12-29T08:06:27.518Z,71.87
2022-12-29T08:07:32.432Z,71.87
2022-12-29T08:08:27.415Z,72.08
2022-12-29T08:09:27.418Z,71.77
2022-12-29T08:10:27.441Z,71.77
2022-12-29T08:11:27.395Z,71.97
2022-12-29T08:12:27.373Z,71.56
2022-12-29T08:13:27.348Z,72.08
2022-12-29T08:14:27.335Z,71.87
2022-12-29T08:15:32.309Z,72.17
2022-12-29T08:16:28.388Z,71.97
2022-12-29T08:17:27.303Z,72.17
2022-12-29T08:18:32.338Z,72.08
2022-12-29T08:19:27.277Z,71.77
2022-12-29T08:20:27.273Z,70.85
2022-12-29T08:21:27.251Z,71.26
2022-12-29T08:22:27.239Z,70.95
2022-12-29T08:23:27.238Z,70.95
2022-12-29T08:24:27.253Z,71.06
2022-12-29T08:25:27.225Z,71.15
2022-12-29T08:26:27.193Z,70.95
2022-12-29T08:27:27.225Z,71.15
2022-12-29T08:28:27.185Z,71.06
2022-12-29T08:29:32.185Z,70.92
2022-12-29T08:30:27.150Z,71.15
2022-12-29T08:31:27.219Z,71.94
2022-12-29T08:32:27.169Z,72.48
2022-12-29T08:33:27.128Z,72.69
2022-12-29T08:34:27.116Z,74.32
2022-12-29T08:35:27.124Z,74.52
2022-12-29T08:36:27.095Z,73.81
2022-12-29T08:37:31.076Z,73.91
2022-12-29T08:38:27.067Z,74.62
2022-12-29T08:39:27.044Z,74.35
2022-12-29T08:40:32.058Z,75.07
2022-12-29T08:41:27.032Z,74.15
2022-12-29T08:42:27.028Z,74.45
2022-12-29T08:43:27.058Z,74.52
2022-12-29T08:44:26.988Z,74.25
2022-12-29T08:45:26.980Z,73.84
2022-12-29T08:46:28.102Z,74.21
2022-12-29T08:47:26.960Z,74.01
2022-12-29T08:48:26.972Z,74.25
2022-12-29T08:49:26.939Z,72.79
2022-12-29T08:50:26.935Z,74.01
2022-12-29T08:51:31.936Z,73.10
2022-12-29T08:52:26.917Z,72.58
2022-12-29T08:53:26.907Z,72.38
2022-12-29T08:54:26.904Z,73.30
2022-12-29T08:55:26.883Z,72.28
2022-12-29T08:56:26.860Z,72.48
2022-12-29T08:57:26.841Z,72.79
2022-12-29T08:58:26.843Z,72.99
2022-12-29T08:59:26.843Z,72.58
2022-12-29T09:00:26.815Z,72.58
2022-12-29T09:01:26.882Z,72.89
2022-12-29T09:02:32.092Z,72.69
2022-12-29T09:03:54.894Z,72.58
2022-12-29T09:04:27.939Z,72.69
2022-12-29T09:05:26.749Z,72.69
2022-12-29T09:06:26.739Z,73.19
2022-12-29T09:07:26.729Z,72.69
2022-12-29T09:08:26.733Z,72.58
2022-12-29T09:09:26.738Z,72.58
2022-12-29T09:10:26.704Z,72.38
2022-12-29T09:11:26.699Z,72.04
2022-12-29T09:12:30.188Z,72.79
2022-12-29T09:13:32.709Z,72.96
2022-12-29T09:14:26.659Z,72.58
2022-12-29T09:15:26.667Z,72.58
2022-12-29T09:16:26.644Z,72.24
2022-12-29T09:17:26.614Z,72.04
2022-12-29T09:18:26.612Z,72.24
2022-12-29T09:19:26.591Z,72.24
2022-12-29T09:20:26.617Z,72.04
2022-12-29T09:21:26.656Z,72.24
2022-12-29T09:22:26.565Z,72.21
2022-12-29T09:23:26.592Z,72.31
2022-12-29T09:24:31.560Z,71.80
2022-12-29T09:25:26.540Z,72.11
2022-12-29T09:26:26.558Z,71.50
2022-12-29T09:27:26.507Z,71.50
2022-12-29T09:28:26.587Z,71.70
2022-12-29T09:29:26.492Z,71.80
2022-12-29T09:30:26.473Z,71.50
2022-12-29T09:31:26.575Z,71.36
2022-12-29T09:32:29.907Z,71.97
2022-12-29T09:33:27.481Z,71.06
2022-12-29T09:34:26.424Z,70.86
2022-12-29T09:35:31.434Z,71.06
2022-12-29T09:36:26.398Z,71.12
2022-12-29T09:37:26.390Z,71.02
2022-12-29T09:38:26.437Z,70.72
2022-12-29T09:39:26.375Z,71.43
2022-12-29T09:40:26.360Z,72.14
2022-12-29T09:41:26.341Z,72.08
2022-12-29T09:42:26.328Z,72.25
2022-12-29T09:43:26.340Z,72.78
2022-12-29T09:44:26.334Z,72.75
2022-12-29T09:45:26.293Z,72.55
2022-12-29T09:46:31.390Z,72.48
2022-12-29T09:47:26.279Z,72.55
2022-12-29T09:48:26.261Z,72.69
2022-12-29T09:49:26.263Z,72.08
2022-12-29T09:50:27.269Z,72.25
2022-12-29T09:51:26.244Z,72.45
2022-12-29T09:52:26.215Z,72.14
2022-12-29T09:53:26.217Z,72.34
2022-12-29T09:54:26.204Z,72.65
2022-12-29T09:55:26.192Z,72.55
2022-12-29T09:56:26.175Z,72.25
2022-12-29T09:57:31.211Z,73.06
2022-12-29T09:58:26.152Z,72.45
2022-12-29T09:59:26.143Z,72.55
2022-12-29T10:00:26.131Z,72.55
2022-12-29T10:01:26.256Z,72.25
2022-12-29T10:02:26.291Z,73.40
2022-12-29T10:03:26.175Z,72.78
2022-12-29T10:04:26.102Z,73.16
2022-12-29T10:05:26.117Z,73.80
2022-12-29T10:06:26.077Z,73.91
2022-12-29T10:07:30.602Z,73.40
2022-12-29T10:08:31.111Z,73.40
2022-12-29T10:09:26.042Z,73.91
2022-12-29T10:10:26.031Z,73.60
2022-12-29T10:11:26.004Z,74.01
2022-12-29T10:12:25.987Z,73.67
2022-12-29T10:13:25.987Z,74.38
2022-12-29T10:14:25.977Z,74.52
2022-12-29T10:15:25.951Z,74.48
2022-12-29T10:16:25.999Z,74.41
2022-12-29T10:17:25.931Z,74.52
2022-12-29T10:18:25.949Z,74.62
2022-12-29T10:19:33.343Z,74.52
2022-12-29T10:20:25.913Z,74.62
2022-12-29T10:21:25.886Z,74.38
2022-12-29T10:22:25.879Z,74.48
2022-12-29T10:23:25.865Z,74.32
2022-12-29T10:24:25.850Z,74.01
2022-12-29T10:25:28.451Z,73.91
2022-12-29T10:26:26.833Z,74.62
2022-12-29T10:27:25.819Z,74.52
2022-12-29T10:28:25.810Z,74.72
2022-12-29T10:29:25.828Z,74.38
2022-12-29T10:30:30.831Z,74.01
2022-12-29T10:31:25.806Z,74.18
2022-12-29T10:32:25.763Z,74.32
2022-12-29T10:33:25.759Z,74.32
2022-12-29T10:34:25.759Z,74.52
2022-12-29T10:35:25.750Z,74.28
2022-12-29T10:36:25.739Z,74.01
2022-12-29T10:37:31.844Z,74.48
2022-12-29T10:38:26.691Z,74.01
2022-12-29T10:39:25.689Z,73.91
2022-12-29T10:40:25.687Z,73.71
2022-12-29T10:41:30.682Z,74.01
2022-12-29T10:42:25.664Z,73.91
2022-12-29T10:43:25.633Z,73.77
2022-12-29T10:44:25.643Z,73.30
2022-12-29T10:45:25.681Z,73.57
2022-12-29T10:46:25.646Z,73.30
2022-12-29T10:47:25.616Z,72.45
2022-12-29T10:48:31.517Z,72.75
2022-12-29T10:49:26.581Z,72.99
2022-12-29T10:50:25.596Z,73.19
2022-12-29T10:51:25.556Z,72.34
2022-12-29T10:52:30.558Z,72.38
2022-12-29T10:53:25.532Z,72.45
2022-12-29T10:54:25.543Z,72.45
2022-12-29T10:55:25.553Z,72.65
2022-12-29T10:56:25.489Z,72.04
2022-12-29T10:57:25.603Z,71.84
2022-12-29T10:58:25.466Z,72.25
2022-12-29T10:59:25.459Z,72.14
2022-12-29T11:00:26.452Z,72.14
2022-12-29T11:01:25.499Z,72.34
2022-12-29T11:02:25.522Z,72.65
2022-12-29T11:03:30.573Z,72.86
2022-12-29T11:04:25.399Z,72.34
2022-12-29T11:05:25.420Z,73.06
2022-12-29T11:06:25.404Z,73.47
2022-12-29T11:07:27.579Z,73.67
2022-12-29T11:08:25.366Z,73.77
2022-12-29T11:09:32.451Z,74.38
2022-12-29T11:10:26.347Z,74.28
2022-12-29T11:11:25.338Z,74.18
2022-12-29T11:12:25.330Z,74.28
2022-12-29T11:13:25.339Z,73.84
2022-12-29T11:14:30.313Z,73.63
2022-12-29T11:15:25.278Z,73.54
2022-12-29T11:16:25.341Z,72.62
2022-12-29T11:17:25.264Z,72.17
2022-12-29T11:18:25.265Z,72.28
2022-12-29T11:19:25.243Z,71.26
2022-12-29T11:20:25.218Z,70.72
2022-12-29T11:21:25.221Z,70.52
2022-12-29T11:22:25.240Z,70.48
2022-12-29T11:23:25.197Z,70.28
2022-12-29T11:24:25.204Z,70.11
2022-12-29T11:25:30.191Z,70.08
2022-12-29T11:26:30.167Z,69.91
2022-12-29T11:27:26.147Z,70.21
2022-12-29T11:28:25.131Z,70.01
2022-12-29T11:29:25.124Z,70.01
2022-12-29T11:30:25.113Z,70.04
2022-12-29T11:31:25.158Z,69.50
2022-12-29T11:32:28.877Z,70.14
2022-12-29T11:33:25.073Z,69.53
2022-12-29T11:34:25.060Z,69.74
2022-12-29T11:35:25.053Z,69.43
2022-12-29T11:36:30.078Z,69.13
2022-12-29T11:37:25.046Z,68.11
2022-12-29T11:38:25.036Z,68.41
2022-12-29T11:39:25.008Z,68.62
2022-12-29T11:40:24.999Z,68.35
2022-12-29T11:41:25.997Z,68.41
2022-12-29T11:42:24.983Z,69.26
2022-12-29T11:43:24.968Z,69.87
2022-12-29T11:44:25.945Z,69.77
2022-12-29T11:45:24.938Z,69.67
2022-12-29T11:46:25.009Z,69.87
2022-12-29T11:47:30.934Z,70.18
2022-12-29T11:48:24.907Z,70.58
2022-12-29T11:49:24.928Z,70.18
2022-12-29T11:50:24.904Z,70.18
2022-12-29T11:51:25.418Z,69.77
2022-12-29T11:52:24.862Z,70.38
2022-12-29T11:53:24.856Z,69.57
2022-12-29T11:54:24.917Z,70.18
2022-12-29T11:55:24.853Z,69.90
2022-12-29T11:56:24.825Z,69.67
2022-12-29T11:57:24.833Z,69.97
2022-12-29T11:58:29.819Z,69.77
2022-12-29T11:59:24.789Z,69.26
2022-12-29T12:00:24.774Z,68.75
2022-12-29T12:01:24.839Z,68.55
2022-12-29T12:02:24.912Z,68.75
2022-12-29T12:03:24.937Z,68.75
2022-12-29T12:04:24.796Z,68.55
2022-12-29T12:05:24.714Z,68.55
2022-12-29T12:06:24.721Z,68.35
2022-12-29T12:07:24.734Z,68.85
2022-12-29T12:08:24.682Z,68.62
2022-12-29T12:09:29.764Z,68.65
2022-12-29T12:10:24.655Z,68.44
2022-12-29T12:11:24.706Z,68.55
2022-12-29T12:12:24.637Z,67.94
2022-12-29T12:13:24.653Z,67.74
2022-12-29T12:14:24.638Z,67.53
2022-12-29T12:15:24.623Z,67.83
2022-12-29T12:16:24.655Z,67.53
2022-12-29T12:17:25.613Z,68.04
2022-12-29T12:18:24.576Z,68.14
2022-12-29T12:19:24.561Z,67.36
2022-12-29T12:20:29.574Z,67.46
2022-12-29T12:21:24.579Z,68.07
2022-12-29T12:22:24.549Z,68.27
2022-12-29T12:23:24.521Z,68.79
2022-12-29T12:24:24.511Z,68.71
2022-12-29T12:25:24.510Z,70.01
2022-12-29T12:26:24.512Z,70.04
2022-12-29T12:27:24.484Z,70.34
2022-12-29T12:28:24.464Z,70.51
2022-12-29T12:29:24.448Z,70.65
2022-12-29T12:30:24.440Z,70.45
2022-12-29T12:31:29.489Z,70.65
2022-12-29T12:32:24.435Z,72.08
2022-12-29T12:33:24.453Z,72.01
2022-12-29T12:34:24.409Z,72.11
2022-12-29T12:35:24.386Z,72.31
2022-12-29T12:36:24.371Z,72.62
2022-12-29T12:37:24.386Z,72.31
2022-12-29T12:38:24.408Z,73.33
2022-12-29T12:39:24.346Z,73.47
2022-12-29T12:40:24.330Z,73.33
2022-12-29T12:41:24.345Z,73.23
2022-12-29T12:42:29.361Z,73.43
2022-12-29T12:43:24.315Z,73.43
2022-12-29T12:44:24.281Z,74.04
2022-12-29T12:45:24.266Z,73.74
2022-12-29T12:46:24.269Z,73.84
2022-12-29T12:47:24.649Z,74.04
2022-12-29T12:48:24.246Z,74.25
2022-12-29T12:49:24.231Z,74.35
2022-12-29T12:50:24.210Z,74.45
2022-12-29T12:51:24.214Z,74.45
2022-12-29T12:52:24.199Z,74.25
2022-12-29T12:53:29.226Z,74.45
2022-12-29T12:54:24.163Z,74.86
2022-12-29T12:55:25.174Z,74.86
2022-12-29T12:56:24.156Z,74.96
2022-12-29T12:57:24.157Z,74.96
2022-12-29T12:58:24.135Z,75.16
2022-12-29T12:59:24.113Z,75.78
2022-12-29T13:00:24.134Z,75.37
2022-12-29T13:01:24.180Z,75.27
2022-12-29T13:02:24.372Z,74.65
2022-12-29T13:03:24.125Z,75.16
2022-12-29T13:04:29.179Z,74.65
2022-12-29T13:05:26.906Z,74.86
2022-12-29T13:06:24.030Z,74.86
2022-12-29T13:07:24.035Z,73.84
2022-12-29T13:08:24.034Z,74.21
2022-12-29T13:09:24.029Z,72.82
2022-12-29T13:10:23.991Z,72.38
2022-12-29T13:11:23.985Z,71.47
2022-12-29T13:12:23.968Z,72.28
2022-12-29T13:13:24.014Z,71.67
2022-12-29T13:14:23.946Z,71.67
2022-12-29T13:15:28.962Z,70.45
2022-12-29T13:16:24.011Z,70.34
2022-12-29T13:17:23.909Z,70.34
2022-12-29T13:18:23.922Z,70.55
2022-12-29T13:19:23.937Z,70.34
2022-12-29T13:20:23.875Z,70.78
2022-12-29T13:21:23.869Z,71.06
2022-12-29T13:22:23.860Z,70.65
2022-12-29T13:23:23.864Z,70.58
2022-12-29T13:24:23.830Z,70.45
2022-12-29T13:25:23.848Z,70.34
2022-12-29T13:26:28.862Z,70.99
2022-12-29T13:27:23.801Z,70.48
2022-12-29T13:28:23.804Z,70.68
2022-12-29T13:29:23.819Z,70.48
2022-12-29T13:30:23.768Z,70.38
2022-12-29T13:31:23.779Z,70.28
2022-12-29T13:32:23.751Z,70.38
2022-12-29T13:33:23.810Z,70.48
2022-12-29T13:34:23.752Z,70.78
2022-12-29T13:35:23.714Z,70.99
2022-12-29T13:36:23.702Z,70.99
2022-12-29T13:37:28.717Z,71.12
2022-12-29T13:38:23.705Z,70.82
2022-12-29T13:39:23.669Z,71.33
2022-12-29T13:40:23.650Z,70.82
2022-12-29T13:41:23.650Z,71.53
2022-12-29T13:42:23.633Z,71.43
2022-12-29T13:43:23.650Z,71.77
2022-12-29T13:44:23.612Z,72.04
2022-12-29T13:45:23.618Z,72.04
2022-12-29T13:46:23.657Z,72.75
2022-12-29T13:47:23.595Z,72.75
2022-12-29T13:48:28.597Z,72.58
2022-12-29T13:49:24.632Z,73.40
2022-12-29T13:50:23.596Z,74.11
2022-12-29T13:51:27.733Z,74.42
2022-12-29T13:52:23.517Z,74.83
2022-12-29T13:53:23.518Z,74.11
2022-12-29T13:54:23.493Z,75.78
2022-12-29T13:55:23.483Z,75.78
2022-12-29T13:56:23.471Z,75.68
2022-12-29T13:57:27.686Z,75.88
2022-12-29T13:58:23.454Z,75.68
2022-12-29T13:59:28.581Z,76.09
2022-12-29T14:00:23.423Z,75.48
2022-12-29T14:01:24.674Z,75.82
2022-12-29T14:02:24.723Z,75.61
2022-12-29T14:03:30.047Z,76.22
2022-12-29T14:04:24.393Z,75.92
2022-12-29T14:05:23.373Z,76.02
2022-12-29T14:06:23.465Z,75.92
2022-12-29T14:07:23.375Z,76.73
2022-12-29T14:08:23.390Z,76.84
2022-12-29T14:09:23.374Z,77.14
2022-12-29T14:10:28.343Z,77.08
2022-12-29T14:11:23.308Z,77.48
2022-12-29T14:12:23.293Z,77.38
2022-12-29T14:13:23.311Z,77.89
2022-12-29T14:14:23.330Z,77.48
2022-12-29T14:15:23.312Z,77.69
2022-12-29T14:16:23.354Z,78.09
2022-12-29T14:17:23.311Z,78.64
2022-12-29T14:18:23.237Z,78.61
2022-12-29T14:19:23.208Z,78.50
2022-12-29T14:20:23.215Z,78.13
2022-12-29T14:21:28.221Z,78.03
2022-12-29T14:22:27.510Z,78.23
2022-12-29T14:23:24.196Z,78.95
2022-12-29T14:24:23.186Z,77.93
2022-12-29T14:25:23.146Z,78.03
2022-12-29T14:26:23.151Z,78.23
2022-12-29T14:27:23.129Z,78.03
2022-12-29T14:28:23.138Z,77.93
2022-12-29T14:29:23.097Z,77.83
2022-12-29T14:30:23.089Z,77.62
2022-12-29T14:31:23.168Z,77.83
2022-12-29T14:32:28.118Z,77.62
2022-12-29T14:33:23.074Z,77.93
2022-12-29T14:34:23.072Z,77.72
2022-12-29T14:35:23.049Z,77.22
2022-12-29T14:36:24.027Z,76.90
2022-12-29T14:37:23.018Z,77.22
2022-12-29T14:38:23.005Z,77.22
2022-12-29T14:39:23.000Z,77.42
2022-12-29T14:40:22.974Z,77.42
2022-12-29T14:41:22.974Z,77.11
2022-12-29T14:42:22.991Z,77.22
2022-12-29T14:43:27.978Z,77.11
2022-12-29T14:44:22.934Z,77.22
2022-12-29T14:45:22.923Z,76.90
2022-12-29T14:46:22.977Z,76.90
2022-12-29T14:47:22.913Z,76.90
2022-12-29T14:48:22.921Z,77.22
2022-12-29T14:49:22.902Z,77.42
2022-12-29T14:50:22.856Z,77.22
2022-12-29T14:51:22.855Z,77.52
2022-12-29T14:52:22.866Z,77.72
2022-12-29T14:53:22.826Z,77.83
2022-12-29T14:54:27.847Z,77.72
2022-12-29T14:55:22.805Z,77.72
2022-12-29T14:56:22.792Z,77.62
2022-12-29T14:57:22.778Z,77.83
2022-12-29T14:58:22.771Z,77.66
2022-12-29T14:59:22.785Z,77.97
2022-12-29T15:00:22.745Z,78.88
2022-12-29T15:01:22.837Z,78.27
2022-12-29T15:02:22.848Z,77.56
2022-12-29T15:03:22.867Z,78.78
2022-12-29T15:04:22.831Z,78.38
2022-12-29T15:05:27.927Z,78.99
2022-12-29T15:06:23.410Z,78.17
2022-12-29T15:07:22.715Z,78.38
2022-12-29T15:08:22.677Z,78.48
2022-12-29T15:09:22.661Z,78.78
2022-12-29T15:10:22.646Z,78.78
2022-12-29T15:11:22.627Z,78.48
2022-12-29T15:12:22.626Z,78.78
2022-12-29T15:13:22.611Z,78.38
2022-12-29T15:14:22.602Z,78.38
2022-12-29T15:15:22.571Z,78.68
2022-12-29T15:16:27.686Z,78.48
2022-12-29T15:17:22.558Z,78.99
2022-12-29T15:18:22.876Z,80.15
2022-12-29T15:19:22.542Z,79.23
2022-12-29T15:20:22.645Z,80.52
2022-12-29T15:21:22.504Z,80.76
2022-12-29T15:22:22.505Z,80.66
2022-12-29T15:23:22.567Z,81.07
2022-12-29T15:24:23.819Z,81.07
2022-12-29T15:25:22.462Z,81.48
2022-12-29T15:26:22.461Z,81.79
2022-12-29T15:27:27.502Z,81.79
2022-12-29T15:28:22.427Z,81.79
2022-12-29T15:29:22.450Z,81.88
2022-12-29T15:30:22.464Z,82.29
2022-12-29T15:31:28.046Z,82.34
2022-12-29T15:32:23.379Z,82.40
2022-12-29T15:33:22.406Z,82.13
2022-12-29T15:34:22.493Z,82.81
2022-12-29T15:35:22.397Z,82.75
2022-12-29T15:36:22.362Z,82.75
2022-12-29T15:37:22.348Z,82.64
2022-12-29T15:38:33.397Z,83.46
2022-12-29T15:39:23.318Z,83.46
2022-12-29T15:40:22.296Z,83.46
2022-12-29T15:41:22.275Z,83.36
2022-12-29T15:42:22.291Z,83.46
2022-12-29T15:43:22.275Z,84.01
2022-12-29T15:44:23.050Z,84.42
2022-12-29T15:45:22.258Z,84.31
2022-12-29T15:46:22.291Z,85.14
2022-12-29T15:47:22.260Z,85.03
2022-12-29T15:48:22.323Z,85.44
2022-12-29T15:49:31.990Z,84.52
2022-12-29T15:50:23.210Z,85.34
2022-12-29T15:51:22.194Z,85.55
2022-12-29T15:52:22.239Z,85.69
2022-12-29T15:53:22.162Z,85.48
2022-12-29T15:54:22.165Z,85.38
2022-12-29T15:55:22.139Z,85.64
2022-12-29T15:56:22.127Z,85.89
2022-12-29T15:57:22.103Z,85.99
2022-12-29T15:58:22.086Z,85.99
2022-12-29T15:59:22.070Z,86.20
2022-12-29T16:00:27.202Z,86.16
2022-12-29T16:01:22.196Z,85.79
2022-12-29T16:02:22.275Z,85.89
2022-12-29T16:03:22.126Z,85.69
2022-12-29T16:04:22.145Z,85.64
2022-12-29T16:05:22.026Z,85.64
2022-12-29T16:06:21.996Z,85.55
2022-12-29T16:07:21.979Z,85.48
2022-12-29T16:08:21.990Z,85.38
2022-12-29T16:09:21.966Z,85.34
2022-12-29T16:10:21.996Z,85.34
2022-12-29T16:11:26.955Z,85.28
2022-12-29T16:12:22.020Z,85.58
2022-12-29T16:13:21.916Z,85.28
2022-12-29T16:14:21.911Z,85.34
2022-12-29T16:15:21.918Z,85.44
2022-12-29T16:16:21.984Z,85.34
2022-12-29T16:17:21.875Z,85.14
2022-12-29T16:18:21.871Z,84.93
2022-12-29T16:19:21.851Z,84.63
2022-12-29T16:20:22.195Z,85.14
2022-12-29T16:21:21.845Z,84.22
2022-12-29T16:22:26.839Z,84.93
2022-12-29T16:23:21.808Z,84.93
2022-12-29T16:24:21.894Z,85.14
2022-12-29T16:25:21.789Z,84.42
2022-12-29T16:26:21.813Z,84.22
2022-12-29T16:27:21.754Z,84.52
2022-12-29T16:28:21.746Z,84.52
2022-12-29T16:29:21.745Z,84.63
2022-12-29T16:30:22.715Z,84.11
2022-12-29T16:31:21.783Z,83.91
2022-12-29T16:32:21.702Z,83.39
2022-12-29T16:33:26.751Z,83.91
2022-12-29T16:34:21.685Z,83.81
2022-12-29T16:35:21.708Z,82.98
2022-12-29T16:36:21.665Z,83.87
2022-12-29T16:37:21.671Z,83.09
2022-12-29T16:38:21.634Z,82.48
2022-12-29T16:39:21.618Z,82.78
2022-12-29T16:40:21.652Z,82.43
2022-12-29T16:41:21.621Z,82.34
2022-12-29T16:42:21.595Z,82.13
2022-12-29T16:43:21.612Z,83.15
2022-12-29T16:44:26.615Z,82.64
2022-12-29T16:45:21.564Z,82.43
2022-12-29T16:46:21.621Z,82.84
2022-12-29T16:47:21.537Z,83.15
2022-12-29T16:48:21.537Z,82.43
2022-12-29T16:49:21.532Z,82.54
2022-12-29T16:50:28.211Z,82.13
2022-12-29T16:51:22.490Z,82.13
2022-12-29T16:52:21.469Z,82.23
2022-12-29T16:53:21.459Z,82.43
2022-12-29T16:54:21.459Z,82.23
2022-12-29T16:55:26.480Z,81.72
2022-12-29T16:56:21.468Z,82.34
2022-12-29T16:57:21.410Z,82.34
2022-12-29T16:58:21.404Z,82.23
2022-12-29T16:59:21.399Z,82.54
2022-12-29T17:00:21.387Z,82.43
2022-12-29T17:01:21.523Z,82.13
2022-12-29T17:02:21.526Z,83.05
2022-12-29T17:03:21.433Z,82.03
2022-12-29T17:04:21.345Z,82.13
2022-12-29T17:05:21.322Z,82.75
2022-12-29T17:06:26.342Z,82.75
2022-12-29T17:07:21.305Z,82.54
2022-12-29T17:08:21.289Z,82.78
2022-12-29T17:09:21.317Z,82.54
2022-12-29T17:10:21.299Z,82.98
2022-12-29T17:11:21.294Z,83.50
2022-12-29T17:12:21.250Z,83.50
2022-12-29T17:13:21.260Z,83.91
2022-12-29T17:14:21.223Z,83.66
2022-12-29T17:15:21.216Z,83.70
2022-12-29T17:16:21.243Z,83.46
2022-12-29T17:17:26.218Z,83.81
2022-12-29T17:18:21.177Z,84.42
2022-12-29T17:19:21.163Z,84.42
2022-12-29T17:20:21.151Z,84.93
2022-12-29T17:21:21.158Z,85.14
2022-12-29T17:22:21.164Z,84.93
2022-12-29T17:23:26.338Z,85.24
2022-12-29T17:24:22.104Z,85.34
2022-12-29T17:25:21.105Z,85.40
2022-12-29T17:26:21.419Z,85.71
2022-12-29T17:27:21.099Z,85.71
2022-12-29T17:28:26.404Z,86.16
2022-12-29T17:29:21.050Z,86.63
2022-12-29T17:30:21.055Z,86.88
2022-12-29T17:31:21.064Z,87.18
2022-12-29T17:32:21.029Z,87.38
2022-12-29T17:33:21.023Z,87.79
2022-12-29T17:34:21.019Z,87.49
2022-12-29T17:35:20.987Z,87.49
2022-12-29T17:36:21.025Z,87.90
2022-12-29T17:37:20.955Z,87.79
2022-12-29T17:38:20.987Z,88.62
2022-12-29T17:39:26.949Z,88.51
2022-12-29T17:40:20.927Z,88.31
2022-12-29T17:41:20.944Z,88.62
2022-12-29T17:42:20.948Z,88.10
2022-12-29T17:43:20.983Z,88.71
2022-12-29T17:44:20.915Z,88.96
2022-12-29T17:45:20.889Z,88.71
2022-12-29T17:46:20.944Z,88.82
2022-12-29T17:47:20.878Z,88.41
2022-12-29T17:48:20.829Z,88.82
2022-12-29T17:49:20.819Z,89.03
2022-12-29T17:50:25.837Z,88.82
2022-12-29T17:51:21.396Z,88.96
2022-12-29T17:52:20.803Z,88.62